createdAt,value
2022-10-11T00:02:06.642Z,74.28
2022-10-11T00:04:48.976Z,73.77
2022-10-11T00:07:38.632Z,74.04
2022-10-11T00:10:20.938Z,74.47
2022-10-11T00:13:10.721Z,74.24
2022-10-11T00:15:52.945Z,74.41
2022-10-11T00:18:44.634Z,74.90
2022-10-11T00:21:26.957Z,74.39
2022-10-11T00:24:15.657Z,74.53
2022-10-11T00:26:57.957Z,74.21
2022-10-11T00:29:46.646Z,74.57
2022-10-11T00:32:28.899Z,74.56
2022-10-11T00:35:17.643Z,74.93
2022-10-11T00:37:59.978Z,75.04
2022-10-11T00:40:48.873Z,74.94
2022-10-11T00:43:34.302Z,75.81
2022-10-11T00:46:39.300Z,75.87
2022-10-11T00:49:29.006Z,75.60
2022-10-11T00:52:31.995Z,75.20
2022-10-11T00:55:24.936Z,74.42
2022-10-11T00:58:14.631Z,74.90
2022-10-11T01:01:10.550Z,73.11
2022-10-11T01:03:59.956Z,73.03
2022-10-11T01:06:42.920Z,74.02
2022-10-11T01:09:31.632Z,73.77
2022-10-11T01:12:32.642Z,73.04
2022-10-11T01:15:46.734Z,73.22
2022-10-11T01:19:22.928Z,72.57
2022-10-11T01:22:17.686Z,72.19
2022-10-11T01:25:11.927Z,73.36
2022-10-11T01:28:03.691Z,73.30
2022-10-11T01:30:51.970Z,73.84
2022-10-11T01:33:40.639Z,74.39
2022-10-11T01:36:59.103Z,76.31
2022-10-11T01:40:00.672Z,75.51
2022-10-11T01:42:44.635Z,75.17
2022-10-11T01:45:35.684Z,75.24
2022-10-11T01:48:17.840Z,76.53
2022-10-11T01:51:09.638Z,76.14
2022-10-11T01:54:01.019Z,76.32
2022-10-11T01:57:14.115Z,75.63
2022-10-11T02:00:21.921Z,76.51
2022-10-11T02:03:26.679Z,76.09
2022-10-11T02:06:18.963Z,75.51
2022-10-11T02:09:39.625Z,75.75
2022-10-11T02:12:38.639Z,75.59
2022-10-11T02:15:24.205Z,76.06
2022-10-11T02:18:16.703Z,75.91
2022-10-11T02:21:09.736Z,75.38
2022-10-11T02:24:09.705Z,75.58
2022-10-11T02:27:00.905Z,75.80
2022-10-11T02:29:47.653Z,76.05
2022-10-11T02:32:37.956Z,75.90
2022-10-11T02:35:20.616Z,75.24
2022-10-11T02:38:31.934Z,74.11
2022-10-11T02:41:50.614Z,73.73
2022-10-11T02:44:44.855Z,75.00
2022-10-11T02:47:33.621Z,74.53
2022-10-11T02:50:23.110Z,74.58
2022-10-11T02:53:04.796Z,74.70
2022-10-11T02:55:53.914Z,73.61
2022-10-11T02:58:35.631Z,74.34
2022-10-11T03:01:30.512Z,72.73
2022-10-11T03:04:19.645Z,72.73
2022-10-11T03:07:08.548Z,72.85
2022-10-11T03:09:57.707Z,71.82
2022-10-11T03:12:39.906Z,72.14
2022-10-11T03:15:28.631Z,71.70
2022-10-11T03:18:11.913Z,72.03
2022-10-11T03:21:00.687Z,71.20
2022-10-11T03:23:43.914Z,72.66
2022-10-11T03:26:32.623Z,72.02
2022-10-11T03:29:21.536Z,71.74
2022-10-11T03:32:11.604Z,71.94
2022-10-11T03:35:00.633Z,71.23
2022-10-11T03:37:42.861Z,70.34
2022-10-11T03:40:31.652Z,69.37
2022-10-11T03:43:20.983Z,68.87
2022-10-11T03:46:04.035Z,68.85
2022-10-11T03:48:46.828Z,67.94
2022-10-11T03:51:35.692Z,68.56
2022-10-11T03:54:17.859Z,68.82
2022-10-11T03:57:06.632Z,67.25
2022-10-11T03:59:49.305Z,66.50
2022-10-11T04:02:39.393Z,65.76
2022-10-11T04:05:21.819Z,65.80
2022-10-11T04:08:12.290Z,65.73
2022-10-11T04:11:01.904Z,65.26
2022-10-11T04:13:44.657Z,63.73
2022-10-11T04:16:34.096Z,63.53
2022-10-11T04:19:15.625Z,64.21
2022-10-11T04:22:05.078Z,63.99
2022-10-11T04:24:47.610Z,63.48
2022-10-11T04:27:37.902Z,62.08
2022-10-11T04:30:20.652Z,59.42
2022-10-11T04:33:12.386Z,60.32
2022-10-11T04:35:54.635Z,60.72
2022-10-11T04:38:43.929Z,61.38
2022-10-11T04:41:25.685Z,61.76
2022-10-11T04:44:14.468Z,59.83
2022-10-11T04:46:57.625Z,59.87
2022-10-11T04:49:47.090Z,59.02
2022-10-11T04:52:29.674Z,58.54
2022-10-11T04:55:18.943Z,58.14
2022-10-11T04:58:01.633Z,57.15
2022-10-11T05:00:51.416Z,56.90
2022-10-11T05:03:40.611Z,57.29
2022-10-11T05:06:23.081Z,55.61
2022-10-11T05:09:11.637Z,55.61
2022-10-11T05:11:54.224Z,54.80
2022-10-11T05:14:43.970Z,53.98
2022-10-11T05:17:26.048Z,54.56
2022-10-11T05:20:15.684Z,55.88
2022-10-11T05:22:57.879Z,55.10
2022-10-11T05:25:46.684Z,54.11
2022-10-11T05:28:28.975Z,55.75
2022-10-11T05:31:17.609Z,54.87
2022-10-11T05:34:01.012Z,52.26
2022-10-11T05:36:48.605Z,55.50
2022-10-11T05:39:38.688Z,54.19
2022-10-11T05:42:28.034Z,53.66
2022-10-11T05:45:10.635Z,54.65
2022-10-11T05:47:59.191Z,55.21
2022-10-11T05:50:41.616Z,55.37
2022-10-11T05:53:29.977Z,57.33
2022-10-11T05:56:13.624Z,54.23
2022-10-11T05:59:02.657Z,53.09
2022-10-11T06:01:57.621Z,53.74
2022-10-11T06:04:52.624Z,56.20
2022-10-11T06:07:45.788Z,55.01
2022-10-11T06:10:28.697Z,53.92
2022-10-11T06:13:17.928Z,55.82
2022-10-11T06:16:00.941Z,57.57
2022-10-11T06:18:48.957Z,56.17
2022-10-11T06:21:31.610Z,56.02
2022-10-11T06:24:20.984Z,57.14
2022-10-11T06:27:03.670Z,55.08
2022-10-11T06:29:51.899Z,57.18
2022-10-11T06:32:34.691Z,54.45
2022-10-11T06:35:22.926Z,54.08
2022-10-11T06:38:04.688Z,52.36
2022-10-11T06:40:52.953Z,52.52
2022-10-11T06:43:34.649Z,52.05
2022-10-11T06:46:25.056Z,53.91
2022-10-11T06:49:07.596Z,51.79
2022-10-11T06:51:55.958Z,52.42
2022-10-11T06:54:43.891Z,53.41
2022-10-11T06:57:33.097Z,53.20
2022-10-11T07:00:15.643Z,51.68
2022-10-11T07:03:03.954Z,53.99
2022-10-11T07:05:46.596Z,52.43
2022-10-11T07:08:34.908Z,53.05
2022-10-11T07:11:23.627Z,50.79
2022-10-11T07:14:13.899Z,52.84
2022-10-11T07:16:56.617Z,50.71
2022-10-11T07:19:44.885Z,51.34
2022-10-11T07:22:26.621Z,51.26
2022-10-11T07:25:15.902Z,52.15
2022-10-11T07:27:58.584Z,53.31
2022-10-11T07:30:50.896Z,55.80
2022-10-11T07:33:33.598Z,52.64
2022-10-11T07:36:24.812Z,51.93
2022-10-11T07:39:07.611Z,52.95
2022-10-11T07:41:55.898Z,52.56
2022-10-11T07:44:38.603Z,53.51
2022-10-11T07:47:26.897Z,54.90
2022-10-11T07:50:09.690Z,56.09
2022-10-11T07:52:57.999Z,55.67
2022-10-11T07:55:47.671Z,55.89
2022-10-11T07:58:35.957Z,55.11
2022-10-11T08:01:19.736Z,54.92
2022-10-11T08:04:09.059Z,55.83
2022-10-11T08:06:53.480Z,55.91
2022-10-11T08:09:35.819Z,55.95
2022-10-11T08:12:24.678Z,55.61
2022-10-11T08:15:13.905Z,55.46
2022-10-11T08:17:56.592Z,55.60
2022-10-11T08:20:41.387Z,55.27
2022-10-11T08:23:34.943Z,53.42
2022-10-11T08:26:23.931Z,56.32
2022-10-11T08:29:09.667Z,55.73
2022-10-11T08:31:51.972Z,54.05
2022-10-11T08:34:40.764Z,54.13
2022-10-11T08:37:29.540Z,54.78
2022-10-11T08:40:13.639Z,55.04
2022-10-11T08:43:08.946Z,54.05
2022-10-11T08:46:05.801Z,53.19
2022-10-11T08:48:56.941Z,53.30
2022-10-11T08:51:46.669Z,54.65
2022-10-11T08:54:52.950Z,53.63
2022-10-11T08:57:39.608Z,53.73
2022-10-11T09:00:22.736Z,53.11
2022-10-11T09:03:19.621Z,54.48
2022-10-11T09:06:26.346Z,54.31
2022-10-11T09:09:36.658Z,53.95
2022-10-11T09:12:51.881Z,53.72
2022-10-11T09:16:14.670Z,53.64
2022-10-11T09:19:27.939Z,54.76
2022-10-11T09:22:28.112Z,56.08
2022-10-11T09:25:37.995Z,54.19
2022-10-11T09:28:31.545Z,55.02
2022-10-11T09:31:20.601Z,55.02
2022-10-11T09:34:04.076Z,53.57
2022-10-11T09:37:08.589Z,55.03
2022-10-11T09:40:02.885Z,54.55
2022-10-11T09:42:51.680Z,52.59
2022-10-11T09:45:33.888Z,52.47
2022-10-11T09:48:36.634Z,54.43
2022-10-11T09:51:30.912Z,55.71
2022-10-11T09:54:19.588Z,55.63
2022-10-11T09:57:01.860Z,53.88
2022-10-11T09:59:51.610Z,53.52
2022-10-11T10:02:41.624Z,54.12
2022-10-11T10:05:35.608Z,55.40
2022-10-11T10:08:19.752Z,53.70
2022-10-11T10:11:12.680Z,54.26
2022-10-11T10:13:59.947Z,52.87
2022-10-11T10:16:48.613Z,53.59
2022-10-11T10:19:30.895Z,51.73
2022-10-11T10:22:35.664Z,51.81
2022-10-11T10:25:33.922Z,53.95
2022-10-11T10:28:40.798Z,51.57
2022-10-11T10:31:55.273Z,52.25
2022-10-11T10:35:07.676Z,53.15
2022-10-11T10:38:05.146Z,55.31
2022-10-11T10:41:00.600Z,51.39
2022-10-11T10:43:45.871Z,54.59
2022-10-11T10:46:54.587Z,52.80
2022-10-11T10:53:18.603Z,55.33
2022-10-11T10:56:12.901Z,55.35
2022-10-11T10:59:29.645Z,55.80
2022-10-11T11:02:41.153Z,51.07
2022-10-11T11:05:56.597Z,51.76
2022-10-11T11:09:00.585Z,54.39
2022-10-11T11:12:30.612Z,55.31
2022-10-11T11:15:32.632Z,55.73
2022-10-11T11:18:34.552Z,54.86
2022-10-11T11:21:23.624Z,56.16
2022-10-11T11:24:29.896Z,54.59
2022-10-11T11:27:34.601Z,55.28
2022-10-11T11:30:31.929Z,55.80
2022-10-11T11:33:49.114Z,56.07
2022-10-11T11:36:56.960Z,55.53
2022-10-11T11:39:51.601Z,55.14
2022-10-11T11:42:40.587Z,55.80
2022-10-11T11:45:25.905Z,56.82
2022-10-11T11:48:21.635Z,55.92
2022-10-11T11:51:42.169Z,57.48
2022-10-11T11:54:39.585Z,58.47
2022-10-11T11:57:35.933Z,58.51
2022-10-11T12:00:35.638Z,58.61
2022-10-11T12:03:41.578Z,58.41
2022-10-11T12:07:04.051Z,56.81
2022-10-11T12:09:51.441Z,57.54
2022-10-11T12:12:43.607Z,57.68
2022-10-11T12:15:33.862Z,58.25
2022-10-11T12:18:24.652Z,58.22
2022-10-11T12:21:30.447Z,57.30
2022-10-11T12:24:31.607Z,57.99
2022-10-11T12:27:52.593Z,56.02
2022-10-11T12:30:56.927Z,58.01
2022-10-11T12:33:41.588Z,56.28
2022-10-11T12:37:06.571Z,55.93
2022-10-11T12:40:03.590Z,56.93
2022-10-11T12:43:23.950Z,56.82
2022-10-11T12:46:26.662Z,57.25
2022-10-11T12:49:37.280Z,57.01
2022-10-11T12:52:45.582Z,57.60
2022-10-11T12:55:47.021Z,58.11
2022-10-11T12:58:33.608Z,57.79
2022-10-11T13:01:33.026Z,58.34
2022-10-11T13:04:24.632Z,60.48
2022-10-11T13:07:11.984Z,61.51
2022-10-11T13:10:02.586Z,64.42
2022-10-11T13:12:51.077Z,64.29
2022-10-11T13:15:39.621Z,65.64
2022-10-11T13:18:23.910Z,67.61
2022-10-11T13:21:27.607Z,68.36
2022-10-11T13:24:18.114Z,65.56
2022-10-11T13:27:06.576Z,67.13
2022-10-11T13:29:54.043Z,68.02
2022-10-11T13:32:44.600Z,68.09
2022-10-11T13:35:47.911Z,67.17
2022-10-11T13:38:42.597Z,67.45
2022-10-11T13:41:25.189Z,67.88
2022-10-11T13:44:14.024Z,68.39
2022-10-11T13:46:57.045Z,70.02
2022-10-11T13:49:47.594Z,69.80
2022-10-11T13:52:32.115Z,70.52
2022-10-11T13:55:44.593Z,64.04
2022-10-11T13:58:53.906Z,62.02
2022-10-11T14:01:48.759Z,61.82
2022-10-11T14:04:50.034Z,61.95
2022-10-11T14:07:37.610Z,62.74
2022-10-11T14:10:22.701Z,63.76
2022-10-11T14:13:19.599Z,65.28
2022-10-11T14:16:14.040Z,68.49
2022-10-11T14:19:24.613Z,72.31
2022-10-11T14:22:14.603Z,75.59
2022-10-11T14:25:03.576Z,74.92
2022-10-11T14:27:45.988Z,78.11
2022-10-11T14:30:39.582Z,78.12
2022-10-11T14:33:22.804Z,77.57
2022-10-11T14:36:11.588Z,77.87
2022-10-11T14:39:00.547Z,77.19
2022-10-11T14:41:49.610Z,76.75
2022-10-11T14:44:38.599Z,75.89
2022-10-11T14:47:24.887Z,77.11
2022-10-11T14:50:31.585Z,77.76
2022-10-11T14:53:14.883Z,77.16
2022-10-11T14:56:03.790Z,75.50
2022-10-11T14:58:46.050Z,75.25
2022-10-11T15:01:34.633Z,76.65
2022-10-11T15:04:24.302Z,75.77
2022-10-11T15:07:07.585Z,75.04
2022-10-11T15:09:49.748Z,77.37
2022-10-11T15:12:38.590Z,74.89
2022-10-11T15:15:24.254Z,74.64
2022-10-11T15:18:14.576Z,74.97
2022-10-11T15:20:57.201Z,75.07
2022-10-11T15:23:45.580Z,75.48
2022-10-11T15:26:37.570Z,76.83
2022-10-11T15:29:29.632Z,75.85
2022-10-11T15:32:11.980Z,74.90
2022-10-11T15:35:00.581Z,76.00
2022-10-11T15:37:50.504Z,75.73
2022-10-11T15:40:49.629Z,75.36
2022-10-11T15:43:38.622Z,75.04
2022-10-11T15:46:23.850Z,75.07
2022-10-11T15:49:20.590Z,74.72
2022-10-11T15:52:02.901Z,75.15
2022-10-11T15:54:51.607Z,74.51
2022-10-11T15:57:33.882Z,74.00
2022-10-11T16:00:22.622Z,74.01
2022-10-11T16:03:06.966Z,74.41
2022-10-11T16:05:55.612Z,72.39
2022-10-11T16:08:38.057Z,71.80
2022-10-11T16:11:26.621Z,72.05
2022-10-11T16:14:09.075Z,71.49
2022-10-11T16:17:02.629Z,71.38
2022-10-11T16:19:51.568Z,73.14
2022-10-11T16:22:40.928Z,74.62
2022-10-11T16:25:23.643Z,75.72
2022-10-11T16:28:13.878Z,75.24
2022-10-11T16:30:55.584Z,75.53
2022-10-11T16:33:48.175Z,73.41
2022-10-11T16:36:43.577Z,73.25
2022-10-11T16:39:25.822Z,74.64
2022-10-11T16:42:14.629Z,75.22
2022-10-11T16:45:02.877Z,75.08
2022-10-11T16:47:45.582Z,75.39
2022-10-11T16:50:28.080Z,76.39
2022-10-11T16:53:16.575Z,75.16
2022-10-11T16:56:05.971Z,75.38
2022-10-11T16:58:47.884Z,75.09
2022-10-11T17:01:37.586Z,75.86
2022-10-11T17:04:25.848Z,75.85
2022-10-11T17:07:08.576Z,77.18
2022-10-11T17:09:59.050Z,76.09
2022-10-11T17:12:49.215Z,74.71
2022-10-11T17:15:38.593Z,76.64
2022-10-11T17:18:20.853Z,76.51
2022-10-11T17:21:10.581Z,76.71
2022-10-11T17:23:52.930Z,76.45
2022-10-11T17:26:42.566Z,75.83
2022-10-11T17:29:25.407Z,76.52
2022-10-11T17:32:14.672Z,76.21
2022-10-11T17:34:58.423Z,76.95
2022-10-11T17:37:48.647Z,76.90
2022-10-11T17:40:30.854Z,76.98
2022-10-11T17:43:19.643Z,76.83
2022-10-11T17:46:10.035Z,76.46
2022-10-11T17:49:02.582Z,76.92
2022-10-11T17:54:40.172Z,75.97
2022-10-11T17:57:22.631Z,75.79
2022-10-11T18:00:13.809Z,75.45
2022-10-11T18:03:08.625Z,74.78
2022-10-11T18:05:56.848Z,75.69
2022-10-11T18:08:40.542Z,75.02
2022-10-11T18:11:30.141Z,75.01
2022-10-11T18:14:12.616Z,75.33
2022-10-11T18:17:00.977Z,75.03
2022-10-11T18:19:44.540Z,75.12
2022-10-11T18:22:26.900Z,74.65
2022-10-11T18:25:15.556Z,75.01
2022-10-11T18:28:04.942Z,75.32
2022-10-11T18:30:52.562Z,75.40
2022-10-11T18:33:42.230Z,75.31
2022-10-11T18:36:27.877Z,75.89
2022-10-11T18:39:13.565Z,75.14
2022-10-11T18:42:03.616Z,75.73
2022-10-11T18:44:54.292Z,75.80
2022-10-11T18:47:37.639Z,76.35
2022-10-11T18:50:26.881Z,75.38
2022-10-11T18:53:10.640Z,76.72
2022-10-11T18:55:58.913Z,75.01
2022-10-11T18:58:42.660Z,75.65
2022-10-11T19:01:39.172Z,75.57
2022-10-11T19:04:36.553Z,75.00
2022-10-11T19:07:25.619Z,74.83
2022-10-11T19:10:08.986Z,75.69
2022-10-11T19:12:57.645Z,76.01
2022-10-11T19:15:44.002Z,75.71
2022-10-11T19:18:33.559Z,76.51
2022-10-11T19:21:18.893Z,76.94
2022-10-11T19:24:07.542Z,76.44
2022-10-11T19:27:02.325Z,77.12
2022-10-11T19:29:50.806Z,77.51
2022-10-11T19:32:32.611Z,77.43
2022-10-11T19:35:20.998Z,77.22
2022-10-11T19:38:04.049Z,78.05
2022-10-11T19:40:52.691Z,77.75
2022-10-11T19:43:35.086Z,77.93
2022-10-11T19:49:30.832Z,78.15
2022-10-11T19:52:20.605Z,78.04
2022-10-11T19:55:03.824Z,77.81
2022-10-11T19:57:52.560Z,77.55
2022-10-11T20:00:34.852Z,77.21
2022-10-11T20:03:29.590Z,77.01
2022-10-11T20:06:18.931Z,76.84
2022-10-11T20:09:27.306Z,76.79
2022-10-11T20:12:10.560Z,76.47
2022-10-11T20:14:52.834Z,76.51
2022-10-11T20:17:56.558Z,75.51
2022-10-11T20:20:45.534Z,75.50
2022-10-11T20:23:34.822Z,75.80
2022-10-11T20:26:23.549Z,75.26
2022-10-11T20:29:05.723Z,75.56
2022-10-11T20:31:54.548Z,74.50
2022-10-11T20:34:40.462Z,75.49
2022-10-11T20:37:29.764Z,74.74
2022-10-11T20:40:18.868Z,74.01
2022-10-11T20:43:01.844Z,73.36
2022-10-11T20:45:50.870Z,74.62
2022-10-11T20:48:33.533Z,73.88
2022-10-11T20:51:15.776Z,73.92
2022-10-11T20:54:05.588Z,74.59
2022-10-11T20:56:53.844Z,74.56
2022-10-11T20:59:36.538Z,73.51
2022-10-11T21:02:19.159Z,73.72
2022-10-11T21:05:08.555Z,74.04
2022-10-11T21:07:51.374Z,74.43
2022-10-11T21:10:40.593Z,74.21
2022-10-11T21:13:29.842Z,74.09
2022-10-11T21:16:18.613Z,73.88
2022-10-11T21:19:08.892Z,73.39
2022-10-11T21:21:53.809Z,73.73
2022-10-11T21:24:41.868Z,73.80
2022-10-11T21:27:23.531Z,73.74
2022-10-11T21:30:12.834Z,74.62
2022-10-11T21:32:55.523Z,74.57
2022-10-11T21:35:46.822Z,73.55
2022-10-11T21:38:28.580Z,74.31
2022-10-11T21:41:24.052Z,73.95
2022-10-11T21:44:16.509Z,74.61
2022-10-11T21:47:07.501Z,74.18
2022-10-11T21:49:56.390Z,74.68
2022-10-11T21:52:54.069Z,74.45
2022-10-11T21:55:37.549Z,74.44
2022-10-11T21:58:25.818Z,75.09
2022-10-11T22:01:08.564Z,75.85
2022-10-11T22:04:03.405Z,75.80
2022-10-11T22:07:08.561Z,76.24
2022-10-11T22:09:56.889Z,76.39
2022-10-11T22:12:39.589Z,76.16
2022-10-11T22:15:27.814Z,76.42
2022-10-11T22:18:10.527Z,77.88
2022-10-11T22:20:53.079Z,77.40
2022-10-11T22:23:41.574Z,77.45
2022-10-11T22:26:33.832Z,77.82
2022-10-11T22:29:16.530Z,77.56
2022-10-11T22:31:58.752Z,78.43
2022-10-11T22:34:47.526Z,77.11
2022-10-11T22:37:29.697Z,77.21
2022-10-11T22:40:18.575Z,78.38
2022-10-11T22:43:06.800Z,78.05
2022-10-11T22:45:49.517Z,78.91
2022-10-11T22:48:38.439Z,78.84
2022-10-11T22:51:27.540Z,78.30
2022-10-11T22:54:16.636Z,79.22
2022-10-11T22:56:59.800Z,79.14
2022-10-11T22:59:48.524Z,78.58
2022-10-11T23:02:30.824Z,78.30
2022-10-11T23:05:25.534Z,79.01
2022-10-11T23:08:10.478Z,79.15
2022-10-11T23:10:59.516Z,79.42
2022-10-11T23:13:41.723Z,78.28
2022-10-11T23:16:30.572Z,77.95
2022-10-11T23:19:12.709Z,78.72
2022-10-11T23:22:01.556Z,79.36
2022-10-11T23:24:50.518Z,78.31
2022-10-11T23:27:32.871Z,78.70
2022-10-11T23:30:22.534Z,78.20
2022-10-11T23:33:04.833Z,78.27
2022-10-11T23:35:53.519Z,77.82
2022-10-11T23:38:35.859Z,78.31
2022-10-11T23:41:24.516Z,78.20
2022-10-11T23:44:06.829Z,77.98
2022-10-11T23:46:55.857Z,78.18
2022-10-11T23:49:37.820Z,78.54
2022-10-11T23:52:26.581Z,78.96
2022-10-11T23:55:09.245Z,79.09
2022-10-11T23:57:58.571Z,78.87
